createdAt,value
2022-08-04T00:01:09.065Z,96429.72
2022-08-04T00:03:45.580Z,96391.75
2022-08-04T00:06:22.634Z,96375.13
2022-08-04T00:08:59.019Z,96369.47
2022-08-04T00:11:31.749Z,96385.59
2022-08-04T00:14:05.012Z,96427.84
2022-08-04T00:16:38.713Z,96435.28
2022-08-04T00:19:13.329Z,96392.59
2022-08-04T00:21:48.653Z,96402.59
2022-08-04T00:24:20.689Z,96381.31
2022-08-04T00:26:49.554Z,96400.09
2022-08-04T00:29:18.263Z,96413.72
2022-08-04T00:31:54.841Z,96418.81
2022-08-04T00:34:27.918Z,96407.66
2022-08-04T00:36:57.413Z,96449.03
2022-08-04T00:39:28.143Z,96319.00
2022-08-04T00:42:58.731Z,96412.31
2022-08-04T00:46:17.769Z,96363.97
2022-08-04T00:49:04.592Z,96405.34
2022-08-04T00:51:48.544Z,96392.69
2022-08-04T00:55:00.474Z,96405.94
2022-08-04T00:57:43.507Z,96439.28
2022-08-04T01:00:15.096Z,96328.44
2022-08-04T01:03:10.857Z,96363.00
2022-08-04T01:05:59.492Z,96395.97
2022-08-04T01:08:51.145Z,96431.94
2022-08-04T01:11:56.858Z,96440.97
2022-08-04T01:14:48.893Z,96383.31
2022-08-04T01:17:24.633Z,96401.06
2022-08-04T01:20:03.941Z,96393.72
2022-08-04T01:23:37.854Z,96368.19
2022-08-04T01:26:53.661Z,96433.47
2022-08-04T01:29:34.378Z,96428.78
2022-08-04T01:32:25.590Z,96410.19
2022-08-04T01:35:02.375Z,96457.22
2022-08-04T01:37:50.200Z,96371.25
2022-08-04T01:40:19.064Z,96431.31
2022-08-04T01:42:48.231Z,96284.91
2022-08-04T01:45:17.864Z,96382.50
2022-08-04T01:47:52.971Z,96418.56
2022-08-04T01:50:22.654Z,96404.06
2022-08-04T01:52:55.374Z,96407.50
2022-08-04T01:55:24.379Z,96276.56
2022-08-04T01:58:13.864Z,96426.44
2022-08-04T02:00:56.258Z,96362.78
2022-08-04T02:04:21.272Z,96409.31
2022-08-04T02:06:29.287Z,96377.44
2022-08-04T02:09:05.569Z,96397.44
2022-08-04T02:11:34.065Z,96393.66
2022-08-04T02:14:34.729Z,96360.00
2022-08-04T02:17:10.408Z,96381.22
2022-08-04T02:19:59.322Z,96366.31
2022-08-04T02:22:29.795Z,96382.19
2022-08-04T02:25:04.861Z,96400.00
2022-08-04T02:27:59.670Z,96393.03
2022-08-04T02:30:35.374Z,96354.50
2022-08-04T02:33:08.170Z,96309.84
2022-08-04T02:35:39.817Z,96397.13
2022-08-04T02:38:36.596Z,96366.22
2022-08-04T02:41:07.145Z,96286.16
2022-08-04T02:43:52.132Z,96400.53
2022-08-04T02:46:23.112Z,96335.19
2022-08-04T02:48:54.743Z,96405.38
2022-08-04T02:51:30.892Z,96405.19
2022-08-04T02:54:01.868Z,96346.59
2022-08-04T02:56:33.054Z,96402.59
2022-08-04T02:59:03.531Z,96313.88
2022-08-04T03:01:32.356Z,96350.13
2022-08-04T03:04:28.318Z,96421.00
2022-08-04T03:07:32.708Z,96358.00
2022-08-04T03:10:42.013Z,96340.41
2022-08-04T03:13:41.012Z,96409.25
2022-08-04T03:16:38.857Z,96373.44
2022-08-04T03:20:07.130Z,96374.56
2022-08-04T03:23:24.696Z,96399.09
2022-08-04T03:26:47.045Z,96369.63
2022-08-04T03:29:59.901Z,96381.03
2022-08-04T03:33:16.465Z,96385.31
2022-08-04T03:36:39.986Z,96359.50
2022-08-04T03:39:33.195Z,96382.03
2022-08-04T03:42:33.780Z,96378.84
2022-08-04T03:45:41.023Z,96363.34
2022-08-04T03:48:45.276Z,96373.66
2022-08-04T03:51:54.833Z,96348.22
2022-08-04T03:55:18.176Z,96371.19
2022-08-04T03:58:30.498Z,96367.84
2022-08-04T04:01:17.730Z,96355.06
2022-08-04T04:04:24.237Z,96309.56
2022-08-04T04:07:35.626Z,96368.09
2022-08-04T04:10:31.607Z,96371.53
2022-08-04T04:13:40.561Z,96334.16
2022-08-04T04:16:48.637Z,96357.56
2022-08-04T04:20:00.827Z,96316.97
2022-08-04T04:22:55.806Z,96346.75
2022-08-04T04:25:40.928Z,96356.84
2022-08-04T04:28:52.076Z,96362.19
2022-08-04T04:31:48.486Z,96384.09
2022-08-04T04:34:37.085Z,96388.63
2022-08-04T04:37:22.862Z,96351.44
2022-08-04T04:40:27.935Z,96355.41
2022-08-04T04:43:18.561Z,96349.16
2022-08-04T04:45:55.637Z,96403.81
2022-08-04T04:48:38.178Z,96372.56
2022-08-04T04:51:19.620Z,96346.09
2022-08-04T04:54:02.654Z,96366.16
2022-08-04T04:56:42.418Z,96389.22
2022-08-04T04:59:16.664Z,96388.03
2022-08-04T05:02:27.735Z,96352.88
2022-08-04T05:05:21.797Z,96420.84
2022-08-04T05:08:47.431Z,96418.66
2022-08-04T05:12:00.306Z,96305.00
2022-08-04T05:14:42.304Z,96427.34
2022-08-04T05:17:21.767Z,96388.84
2022-08-04T05:20:01.181Z,96356.75
2022-08-04T05:22:36.374Z,96321.31
2022-08-04T05:25:14.864Z,96376.56
2022-08-04T05:27:51.706Z,96348.41
2022-08-04T05:30:21.301Z,96356.66
2022-08-04T05:32:59.142Z,96382.50
2022-08-04T05:35:37.328Z,96382.81
2022-08-04T05:38:29.034Z,96398.16
2022-08-04T05:40:58.658Z,96388.47
2022-08-04T05:43:28.580Z,96358.59
2022-08-04T05:45:57.878Z,96394.28
2022-08-04T05:48:27.929Z,96385.63
2022-08-04T05:51:00.724Z,96371.31
2022-08-04T05:53:30.458Z,96331.53
2022-08-04T05:56:00.068Z,96394.28
2022-08-04T05:58:31.633Z,96407.78
2022-08-04T06:01:02.283Z,96345.38
2022-08-04T06:03:32.118Z,96399.84
2022-08-04T06:06:01.319Z,96393.63
2022-08-04T06:08:31.418Z,96387.31
2022-08-04T06:11:05.675Z,96420.44
2022-08-04T06:13:47.885Z,96473.66
2022-08-04T06:16:29.076Z,96416.34
2022-08-04T06:20:00.847Z,96371.97
2022-08-04T06:21:51.661Z,96379.28
2022-08-04T06:24:23.336Z,96371.41
2022-08-04T06:26:52.953Z,96356.50
2022-08-04T06:29:28.291Z,96282.03
2022-08-04T06:34:57.857Z,96369.75
2022-08-04T06:37:41.847Z,96372.03
2022-08-04T06:40:30.584Z,96351.38
2022-08-04T06:43:03.159Z,96386.22
2022-08-04T06:45:35.418Z,96357.81
2022-08-04T06:48:06.277Z,96397.88
2022-08-04T06:51:25.896Z,96433.06
2022-08-04T06:53:27.066Z,96329.75
2022-08-04T06:55:57.601Z,96400.16
2022-08-04T06:58:26.780Z,96338.06
2022-08-04T07:01:01.823Z,96396.47
2022-08-04T07:03:32.242Z,96396.50
2022-08-04T07:06:06.285Z,96364.09
2022-08-04T07:08:42.365Z,96414.88
2022-08-04T07:11:12.141Z,96350.84
2022-08-04T07:13:44.989Z,96382.44
2022-08-04T07:16:17.607Z,96367.28
2022-08-04T07:18:46.177Z,96389.38
2022-08-04T07:21:23.119Z,96390.97
2022-08-04T07:23:51.932Z,96355.72
2022-08-04T07:26:20.605Z,96406.19
2022-08-04T07:28:49.076Z,96391.84
2022-08-04T07:31:34.057Z,96362.03
2022-08-04T07:34:21.484Z,96379.00
2022-08-04T07:36:55.530Z,96391.56
2022-08-04T07:39:28.267Z,96307.56
2022-08-04T07:42:01.373Z,96359.56
2022-08-04T07:44:31.861Z,96334.00
2022-08-04T07:47:02.864Z,96299.53
2022-08-04T07:49:55.037Z,96431.78
2022-08-04T07:52:19.950Z,96395.09
2022-08-04T07:54:49.362Z,96375.94
2022-08-04T07:57:40.752Z,96339.22
2022-08-04T08:00:10.767Z,96371.97
2022-08-04T08:02:44.103Z,96346.94
2022-08-04T08:05:16.786Z,96358.06
2022-08-04T08:07:50.537Z,96350.66
2022-08-04T08:10:24.188Z,96304.97
2022-08-04T08:12:53.168Z,96304.75
2022-08-04T08:15:22.834Z,96334.25
2022-08-04T08:17:57.830Z,96337.34
2022-08-04T08:20:31.221Z,96377.22
2022-08-04T08:23:00.723Z,96383.81
2022-08-04T08:25:33.289Z,96387.91
2022-08-04T08:28:04.089Z,96388.03
2022-08-04T08:30:33.863Z,96363.63
2022-08-04T08:33:07.381Z,96326.72
2022-08-04T08:35:54.217Z,96352.19
2022-08-04T08:38:39.882Z,96306.84
2022-08-04T08:41:36.015Z,96344.81
2022-08-04T08:44:37.792Z,96365.81
2022-08-04T08:47:19.937Z,96372.56
2022-08-04T08:50:11.457Z,96340.38
2022-08-04T08:53:15.420Z,96342.28
2022-08-04T08:56:03.818Z,96366.97
2022-08-04T08:58:46.834Z,96328.84
2022-08-04T09:01:33.168Z,96367.13
2022-08-04T09:05:09.751Z,96398.25
2022-08-04T09:08:05.807Z,96326.50
2022-08-04T09:10:42.977Z,96352.50
2022-08-04T09:13:21.268Z,96324.31
2022-08-04T09:16:00.027Z,96395.56
2022-08-04T09:18:35.480Z,96340.88
2022-08-04T09:21:14.978Z,96314.91
2022-08-04T09:23:53.279Z,96292.91
2022-08-04T09:26:30.964Z,96326.19
2022-08-04T09:29:09.730Z,96307.22
2022-08-04T09:32:06.213Z,96348.88
2022-08-04T09:34:45.356Z,96340.72
2022-08-04T09:37:26.180Z,96344.94
2022-08-04T09:40:04.889Z,96379.56
2022-08-04T09:42:45.042Z,96288.38
2022-08-04T09:45:26.647Z,96300.25
2022-08-04T09:48:17.654Z,96294.47
2022-08-04T09:50:50.221Z,96327.78
2022-08-04T09:53:38.937Z,96342.53
2022-08-04T09:56:16.022Z,96324.72
2022-08-04T09:58:57.015Z,96302.00
2022-08-04T10:01:27.172Z,96296.47
2022-08-04T10:04:13.765Z,96294.47
2022-08-04T10:07:20.913Z,96319.41
2022-08-04T10:10:18.326Z,96339.47
2022-08-04T10:13:19.688Z,96302.41
2022-08-04T10:16:01.308Z,96311.31
2022-08-04T10:18:45.558Z,96320.63
2022-08-04T10:21:21.053Z,96346.19
2022-08-04T10:24:08.474Z,96262.75
2022-08-04T10:26:48.771Z,96297.00
2022-08-04T10:29:25.857Z,96271.44
2022-08-04T10:32:01.160Z,96326.25
2022-08-04T10:34:34.443Z,96273.88
2022-08-04T10:37:12.385Z,96264.84
2022-08-04T10:40:08.448Z,96215.19
2022-08-04T10:42:43.017Z,96250.38
2022-08-04T10:45:23.331Z,96274.72
2022-08-04T10:47:59.639Z,96265.69
2022-08-04T10:50:31.335Z,96269.09
2022-08-04T10:53:07.818Z,96237.38
2022-08-04T10:56:07.141Z,96244.78
2022-08-04T10:58:47.396Z,96282.84
2022-08-04T11:02:00.008Z,96288.72
2022-08-04T11:04:27.424Z,96262.66
2022-08-04T11:06:57.469Z,96338.13
2022-08-04T11:09:25.977Z,96266.53
2022-08-04T11:12:02.026Z,96270.72
2022-08-04T11:14:36.155Z,96278.53
2022-08-04T11:17:09.527Z,96303.34
2022-08-04T11:19:53.177Z,96289.53
2022-08-04T11:22:27.663Z,96232.88
2022-08-04T11:25:07.608Z,96243.16
2022-08-04T11:27:45.765Z,96280.13
2022-08-04T11:30:17.727Z,96284.63
2022-08-04T11:32:53.035Z,96265.47
2022-08-04T11:35:33.901Z,96253.72
2022-08-04T11:38:11.352Z,96242.41
2022-08-04T11:40:55.925Z,96243.75
2022-08-04T11:44:01.109Z,96255.75
2022-08-04T11:46:33.141Z,96251.97
2022-08-04T11:49:09.771Z,96271.44
2022-08-04T11:51:39.683Z,96225.41
2022-08-04T11:54:07.924Z,96283.44
2022-08-04T11:56:38.052Z,96257.34
2022-08-04T11:59:09.178Z,96262.81
2022-08-04T12:01:51.979Z,96277.72
2022-08-04T12:04:32.205Z,96246.66
2022-08-04T12:10:41.345Z,96223.75
2022-08-04T12:13:20.019Z,96113.75
2022-08-04T12:16:02.505Z,96235.06
2022-08-04T12:18:40.525Z,96229.41
2022-08-04T12:21:18.584Z,96222.94
2022-08-04T12:23:59.010Z,96258.03
2022-08-04T12:26:36.293Z,96242.34
2022-08-04T12:29:11.393Z,96221.91
2022-08-04T12:31:46.758Z,96239.59
2022-08-04T12:34:29.890Z,96221.97
2022-08-04T12:37:06.585Z,96212.13
2022-08-04T12:39:37.636Z,96224.22
2022-08-04T12:42:35.353Z,96205.66
2022-08-04T12:45:08.605Z,96135.13
2022-08-04T12:47:38.072Z,96226.91
2022-08-04T12:50:09.541Z,96180.88
2022-08-04T12:53:04.638Z,96237.53
2022-08-04T12:55:37.255Z,96222.09
2022-08-04T12:58:42.709Z,96219.72
2022-08-04T13:02:09.627Z,96194.56
2022-08-04T13:04:03.905Z,96226.34
2022-08-04T13:06:35.763Z,96207.09
2022-08-04T13:09:09.698Z,96244.84
2022-08-04T13:11:53.880Z,96175.22
2022-08-04T13:14:27.864Z,96159.69
2022-08-04T13:17:01.247Z,96260.78
2022-08-04T13:19:31.878Z,96188.06
2022-08-04T13:22:10.508Z,96200.53
2022-08-04T13:25:18.079Z,96193.66
2022-08-04T13:27:43.166Z,96167.13
2022-08-04T13:30:22.686Z,96183.41
2022-08-04T13:32:56.962Z,96124.91
2022-08-04T13:35:54.288Z,96198.69
2022-08-04T13:38:20.111Z,96150.16
2022-08-04T13:40:50.385Z,96205.66
2022-08-04T13:44:15.478Z,96216.28
2022-08-04T13:46:27.703Z,96170.50
2022-08-04T13:49:25.806Z,96123.97
2022-08-04T13:51:58.469Z,96164.13
2022-08-04T13:54:30.309Z,96159.78
2022-08-04T13:57:03.011Z,96172.78
2022-08-04T13:59:38.016Z,96173.34
2022-08-04T14:02:11.334Z,96160.94
2022-08-04T14:04:43.277Z,96166.59
2022-08-04T14:07:17.994Z,96136.34
2022-08-04T14:10:03.895Z,96109.31
2022-08-04T14:12:45.284Z,96157.75
2022-08-04T14:16:01.939Z,96111.88
2022-08-04T14:18:29.568Z,96171.72
2022-08-04T14:21:07.825Z,96119.41
2022-08-04T14:23:49.137Z,96107.06
2022-08-04T14:26:31.385Z,96170.94
2022-08-04T14:29:27.421Z,96152.63
2022-08-04T14:32:12.633Z,96174.59
2022-08-04T14:34:45.801Z,96127.25
2022-08-04T14:37:20.478Z,96116.16
2022-08-04T14:40:17.404Z,96107.22
2022-08-04T14:42:42.819Z,96125.94
2022-08-04T14:45:13.169Z,96072.88
2022-08-04T14:47:52.865Z,96148.84
2022-08-04T14:50:34.311Z,96156.16
2022-08-04T14:53:11.220Z,96109.41
2022-08-04T14:55:43.407Z,96130.59
2022-08-04T14:58:35.426Z,96154.28
2022-08-04T15:01:12.053Z,96142.75
2022-08-04T15:03:50.873Z,96132.75
2022-08-04T15:06:23.777Z,96108.19
2022-08-04T15:08:54.189Z,96160.94
2022-08-04T15:11:24.525Z,96137.41
2022-08-04T15:13:54.233Z,96081.81
2022-08-04T15:16:26.849Z,96120.00
2022-08-04T15:18:56.902Z,96141.94
2022-08-04T15:21:29.038Z,96111.94
2022-08-04T15:23:58.685Z,96009.38
2022-08-04T15:26:34.348Z,96122.50
2022-08-04T15:29:17.065Z,96112.56
2022-08-04T15:32:05.632Z,96097.47
2022-08-04T15:34:55.455Z,96117.00
2022-08-04T15:37:30.406Z,96119.41
2022-08-04T15:40:07.279Z,96092.19
2022-08-04T15:42:42.543Z,96104.81
2022-08-04T15:45:23.714Z,96138.19
2022-08-04T15:48:27.241Z,96081.94
2022-08-04T15:51:14.302Z,96119.84
2022-08-04T15:54:27.482Z,96099.03
2022-08-04T15:57:01.298Z,96082.47
2022-08-04T16:00:08.763Z,96138.94
2022-08-04T16:02:44.590Z,96122.44
2022-08-04T16:05:42.598Z,96104.66
2022-08-04T16:08:14.053Z,96146.84
2022-08-04T16:10:44.984Z,96092.56
2022-08-04T16:13:15.030Z,96119.09
2022-08-04T16:15:49.437Z,96118.38
2022-08-04T16:18:43.751Z,96091.88
2022-08-04T16:21:25.813Z,96102.72
2022-08-04T16:24:20.224Z,96102.84
2022-08-04T16:26:56.481Z,96124.19
2022-08-04T16:29:30.876Z,96084.22
2022-08-04T16:32:25.196Z,96120.66
2022-08-04T16:35:00.350Z,96092.09
2022-08-04T16:37:37.593Z,96085.94
2022-08-04T16:40:38.116Z,96022.81
2022-08-04T16:43:11.359Z,96061.56
2022-08-04T16:45:53.949Z,96114.28
2022-08-04T16:48:26.871Z,96083.00
2022-08-04T16:51:05.146Z,96084.03
2022-08-04T16:54:04.376Z,96091.22
2022-08-04T16:56:35.304Z,96077.25
2022-08-04T16:59:09.310Z,96059.09
2022-08-04T17:01:38.454Z,96063.59
2022-08-04T17:04:07.501Z,96071.00
2022-08-04T17:06:38.218Z,96100.38
2022-08-04T17:09:12.151Z,96045.63
2022-08-04T17:11:40.946Z,96039.41
2022-08-04T17:14:09.518Z,96067.75
2022-08-04T17:16:40.356Z,96090.06
2022-08-04T17:19:23.953Z,96096.88
2022-08-04T17:22:04.254Z,96092.34
2022-08-04T17:24:38.017Z,96043.19
2022-08-04T17:28:19.006Z,96043.66
2022-08-04T17:29:56.616Z,96067.59
2022-08-04T17:32:25.501Z,96049.78
2022-08-04T17:34:57.417Z,96064.47
2022-08-04T17:37:39.999Z,96038.28
2022-08-04T17:40:22.418Z,96044.44
2022-08-04T17:44:01.233Z,96055.69
2022-08-04T17:46:28.251Z,96038.53
2022-08-04T17:49:06.538Z,96061.97
2022-08-04T17:52:02.551Z,96035.06
2022-08-04T17:54:37.343Z,96077.38
2022-08-04T17:57:20.486Z,96041.88
2022-08-04T17:59:57.899Z,96088.81
2022-08-04T18:02:33.167Z,96048.94
2022-08-04T18:05:05.621Z,96115.81
2022-08-04T18:08:39.192Z,96051.28
2022-08-04T18:10:44.535Z,96019.03
2022-08-04T18:13:26.826Z,96123.22
2022-08-04T18:16:06.224Z,96072.63
2022-08-04T18:18:48.985Z,96128.44
2022-08-04T18:21:19.114Z,96096.06
2022-08-04T18:23:50.654Z,96078.56
2022-08-04T18:26:23.922Z,96064.28
2022-08-04T18:28:53.806Z,96065.41
2022-08-04T18:31:21.992Z,96049.50
2022-08-04T18:33:57.330Z,96090.06
2022-08-04T18:36:33.752Z,96072.31
2022-08-04T18:39:12.789Z,96030.38
2022-08-04T18:42:01.821Z,96014.56
2022-08-04T18:44:51.911Z,96074.88
2022-08-04T18:47:23.325Z,96063.25
2022-08-04T18:51:00.448Z,96115.53
2022-08-04T18:52:45.404Z,96117.22
2022-08-04T18:55:55.578Z,96110.25
2022-08-04T18:58:07.780Z,96126.22
2022-08-04T19:03:30.520Z,96120.59
2022-08-04T19:05:59.718Z,96085.19
2022-08-04T19:08:34.954Z,96124.78
2022-08-04T19:11:35.217Z,96137.88
2022-08-04T19:13:59.122Z,96043.28
2022-08-04T19:16:31.356Z,96111.47
2022-08-04T19:19:00.914Z,96087.75
2022-08-04T19:22:00.576Z,96182.06
2022-08-04T19:24:31.997Z,96168.56
2022-08-04T19:27:06.548Z,96073.72
2022-08-04T19:29:41.317Z,96123.84
2022-08-04T19:32:16.067Z,96143.66
2022-08-04T19:34:47.325Z,96115.09
2022-08-04T19:37:56.916Z,96170.50
2022-08-04T19:40:07.434Z,96140.66
2022-08-04T19:42:36.395Z,96142.63
2022-08-04T19:45:06.404Z,96168.66
2022-08-04T19:48:17.065Z,96129.88
2022-08-04T19:50:24.721Z,96122.25
2022-08-04T19:52:53.271Z,96142.53
2022-08-04T19:55:37.492Z,96170.25
2022-08-04T19:58:09.025Z,96154.75
2022-08-04T20:00:38.570Z,96139.59
2022-08-04T20:06:09.963Z,96125.09
2022-08-04T20:08:38.235Z,96154.78
2022-08-04T20:11:18.584Z,96162.06
2022-08-04T20:13:54.343Z,96119.31
2022-08-04T20:16:29.234Z,96182.09
2022-08-04T20:19:03.790Z,96173.63
2022-08-04T20:21:55.671Z,96136.31
2022-08-04T20:24:40.074Z,96216.69
2022-08-04T20:27:15.965Z,96123.81
2022-08-04T20:29:48.719Z,96144.41
2022-08-04T20:32:22.118Z,96138.38
2022-08-04T20:34:54.190Z,96138.53
2022-08-04T20:37:24.514Z,96181.16
2022-08-04T20:39:56.868Z,96152.03
2022-08-04T20:42:33.746Z,96180.69
2022-08-04T20:45:03.216Z,96193.25
2022-08-04T20:50:29.855Z,96187.53
2022-08-04T20:52:58.909Z,96170.09
2022-08-04T20:55:29.628Z,96154.50
2022-08-04T20:58:03.478Z,96165.81
2022-08-04T21:00:32.255Z,96133.03
2022-08-04T21:03:00.740Z,96160.00
2022-08-04T21:05:31.615Z,96110.50
2022-08-04T21:08:01.743Z,96084.59
2022-08-04T21:10:30.489Z,96176.25
2022-08-04T21:12:59.323Z,96157.13
2022-08-04T21:15:58.737Z,96150.66
2022-08-04T21:18:16.886Z,96165.50
2022-08-04T21:20:48.108Z,96168.47
2022-08-04T21:23:16.962Z,96201.63
2022-08-04T21:25:49.967Z,96181.69
2022-08-04T21:28:20.031Z,96140.44
2022-08-04T21:30:53.987Z,96218.91
2022-08-04T21:33:24.574Z,96154.72
2022-08-04T21:36:14.306Z,96171.44
2022-08-04T21:38:52.231Z,96210.00
2022-08-04T21:41:24.992Z,96093.53
2022-08-04T21:43:56.155Z,96226.44
2022-08-04T21:46:24.502Z,96181.13
2022-08-04T21:48:55.493Z,96094.31
2022-08-04T21:52:00.124Z,96164.41
2022-08-04T21:54:17.342Z,96139.03
2022-08-04T21:56:50.855Z,96194.78
2022-08-04T21:59:23.737Z,96142.72
2022-08-04T22:02:01.769Z,96072.84
2022-08-04T22:04:55.507Z,96119.59
2022-08-04T22:07:25.234Z,96147.81
2022-08-04T22:10:13.262Z,96165.22
2022-08-04T22:12:46.859Z,96184.28
2022-08-04T22:18:08.568Z,96100.53
2022-08-04T22:20:37.165Z,96153.28
2022-08-04T22:23:16.911Z,96070.34
2022-08-04T22:25:53.608Z,96157.81
2022-08-04T22:28:27.826Z,96137.88
2022-08-04T22:30:56.921Z,96208.72
2022-08-04T22:33:55.375Z,96174.19
2022-08-04T22:36:15.762Z,96205.13
2022-08-04T22:38:48.788Z,96120.31
2022-08-04T22:41:33.841Z,96183.78
2022-08-04T22:44:15.944Z,96200.13
2022-08-04T22:46:44.490Z,96180.44
2022-08-04T22:49:13.998Z,96149.16
2022-08-04T22:51:50.610Z,96136.50
2022-08-04T22:54:20.390Z,96157.66
2022-08-04T22:56:48.563Z,96146.91
2022-08-04T22:59:20.817Z,96160.84
2022-08-04T23:01:59.602Z,96180.16
2022-08-04T23:04:30.920Z,96020.59
2022-08-04T23:06:59.344Z,96094.13
2022-08-04T23:09:50.965Z,96121.81
2022-08-04T23:12:27.348Z,96142.34
2022-08-04T23:14:57.470Z,96154.97
2022-08-04T23:17:27.730Z,96147.06
2022-08-04T23:19:59.517Z,96166.94
2022-08-04T23:22:41.343Z,96136.53
2022-08-04T23:25:16.019Z,96141.84
2022-08-04T23:27:50.463Z,96140.59
2022-08-04T23:30:29.514Z,96137.88
2022-08-04T23:32:59.449Z,96156.19
2022-08-04T23:35:27.795Z,96109.91
2022-08-04T23:37:57.323Z,96097.06
2022-08-04T23:40:34.400Z,96135.84
2022-08-04T23:43:15.318Z,96128.66
2022-08-04T23:46:07.701Z,96107.97
2022-08-04T23:48:35.189Z,96061.72
2022-08-04T23:51:14.435Z,95881.25
2022-08-04T23:54:03.308Z,96161.09
2022-08-04T23:56:35.540Z,96129.47
2022-08-04T23:59:06.060Z,96113.25
